sensor_id;sensor_type;location;lat;lon;timestamp;P1;durP1;ratioP1;P2;durP2;ratioP2
40871;SDS011;26591;43.264;26.940;2023-02-08T00:02:18;22.58;;;12.82;;
40871;SDS011;26591;43.264;26.940;2023-02-08T00:04:43;20.90;;;12.75;;
40871;SDS011;26591;43.264;26.940;2023-02-08T00:07:09;20.77;;;12.73;;
40871;SDS011;26591;43.264;26.940;2023-02-08T00:09:34;27.05;;;12.82;;
40871;SDS011;26591;43.264;26.940;2023-02-08T00:12:00;22.67;;;12.20;;
40871;SDS011;26591;43.264;26.940;2023-02-08T00:14:25;22.52;;;12.82;;
40871;SDS011;26591;43.264;26.940;2023-02-08T00:16:52;23.73;;;12.77;;
40871;SDS011;26591;43.264;26.940;2023-02-08T00:19:17;19.92;;;12.48;;
40871;SDS011;26591;43.264;26.940;2023-02-08T00:21:43;21.90;;;12.98;;
40871;SDS011;26591;43.264;26.940;2023-02-08T00:24:08;27.27;;;13.57;;
40871;SDS011;26591;43.264;26.940;2023-02-08T00:26:34;23.02;;;14.02;;
40871;SDS011;26591;43.264;26.940;2023-02-08T00:28:59;22.25;;;12.32;;
40871;SDS011;26591;43.264;26.940;2023-02-08T00:31:25;24.52;;;13.73;;
40871;SDS011;26591;43.264;26.940;2023-02-08T00:33:50;24.73;;;14.05;;
40871;SDS011;26591;43.264;26.940;2023-02-08T00:36:16;22.83;;;13.20;;
40871;SDS011;26591;43.264;26.940;2023-02-08T00:38:41;24.73;;;14.02;;
40871;SDS011;26591;43.264;26.940;2023-02-08T00:41:07;22.80;;;14.18;;
40871;SDS011;26591;43.264;26.940;2023-02-08T00:43:33;26.38;;;14.30;;
40871;SDS011;26591;43.264;26.940;2023-02-08T00:45:58;23.05;;;13.63;;
40871;SDS011;26591;43.264;26.940;2023-02-08T00:48:25;23.23;;;13.43;;
40871;SDS011;26591;43.264;26.940;2023-02-08T00:53:44;21.35;;;12.68;;
40871;SDS011;26591;43.264;26.940;2023-02-08T00:56:11;22.65;;;13.98;;
40871;SDS011;26591;43.264;26.940;2023-02-08T00:58:38;24.75;;;14.73;;
40871;SDS011;26591;43.264;26.940;2023-02-08T01:01:04;25.52;;;14.60;;
40871;SDS011;26591;43.264;26.940;2023-02-08T01:03:32;39.58;;;20.52;;
40871;SDS011;26591;43.264;26.940;2023-02-08T01:05:59;29.73;;;15.50;;
40871;SDS011;26591;43.264;26.940;2023-02-08T01:08:25;29.50;;;16.35;;
40871;SDS011;26591;43.264;26.940;2023-02-08T01:10:51;28.70;;;15.63;;
40871;SDS011;26591;43.264;26.940;2023-02-08T01:13:17;23.52;;;13.85;;
40871;SDS011;26591;43.264;26.940;2023-02-08T01:15:42;30.75;;;16.83;;
40871;SDS011;26591;43.264;26.940;2023-02-08T01:18:08;27.63;;;16.55;;
40871;SDS011;26591;43.264;26.940;2023-02-08T01:20:35;28.73;;;16.35;;
40871;SDS011;26591;43.264;26.940;2023-02-08T01:23:01;31.85;;;17.85;;
40871;SDS011;26591;43.264;26.940;2023-02-08T01:25:27;27.92;;;16.42;;
40871;SDS011;26591;43.264;26.940;2023-02-08T01:27:54;29.92;;;17.90;;
40871;SDS011;26591;43.264;26.940;2023-02-08T01:30:21;30.42;;;16.95;;
40871;SDS011;26591;43.264;26.940;2023-02-08T01:32:47;29.55;;;16.17;;
40871;SDS011;26591;43.264;26.940;2023-02-08T01:35:13;27.80;;;16.23;;
40871;SDS011;26591;43.264;26.940;2023-02-08T01:37:38;27.42;;;15.90;;
40871;SDS011;26591;43.264;26.940;2023-02-08T01:40:04;25.80;;;15.98;;
40871;SDS011;26591;43.264;26.940;2023-02-08T01:42:32;29.10;;;16.52;;
40871;SDS011;26591;43.264;26.940;2023-02-08T01:47:46;33.55;;;19.65;;
40871;SDS011;26591;43.264;26.940;2023-02-08T01:50:19;28.10;;;16.02;;
40871;SDS011;26591;43.264;26.940;2023-02-08T01:52:48;33.95;;;18.85;;
40871;SDS011;26591;43.264;26.940;2023-02-08T01:55:16;37.70;;;20.58;;
40871;SDS011;26591;43.264;26.940;2023-02-08T01:57:45;31.90;;;17.95;;
40871;SDS011;26591;43.264;26.940;2023-02-08T02:02:46;32.55;;;17.48;;
40871;SDS011;26591;43.264;26.940;2023-02-08T02:05:13;41.00;;;18.30;;
40871;SDS011;26591;43.264;26.940;2023-02-08T02:07:41;30.13;;;17.20;;
40871;SDS011;26591;43.264;26.940;2023-02-08T02:10:18;29.08;;;14.93;;
40871;SDS011;26591;43.264;26.940;2023-02-08T02:12:57;28.70;;;17.13;;
40871;SDS011;26591;43.264;26.940;2023-02-08T02:15:27;24.00;;;14.13;;
40871;SDS011;26591;43.264;26.940;2023-02-08T02:17:52;31.00;;;17.10;;
40871;SDS011;26591;43.264;26.940;2023-02-08T02:42:34;25.08;;;14.43;;
40871;SDS011;26591;43.264;26.940;2023-02-08T02:45:30;29.10;;;15.07;;
40871;SDS011;26591;43.264;26.940;2023-02-08T02:51:06;23.55;;;14.55;;
40871;SDS011;26591;43.264;26.940;2023-02-08T02:53:44;24.02;;;13.40;;
40871;SDS011;26591;43.264;26.940;2023-02-08T02:56:30;22.65;;;13.02;;
40871;SDS011;26591;43.264;26.940;2023-02-08T02:59:01;22.33;;;11.50;;
40871;SDS011;26591;43.264;26.940;2023-02-08T03:01:30;18.35;;;11.65;;
40871;SDS011;26591;43.264;26.940;2023-02-08T03:03:56;23.02;;;11.63;;
40871;SDS011;26591;43.264;26.940;2023-02-08T03:12:21;20.85;;;12.55;;
40871;SDS011;26591;43.264;26.940;2023-02-08T03:15:00;15.85;;;8.98;;
40871;SDS011;26591;43.264;26.940;2023-02-08T03:20:20;23.23;;;12.80;;
40871;SDS011;26591;43.264;26.940;2023-02-08T03:23:12;21.02;;;11.85;;
40871;SDS011;26591;43.264;26.940;2023-02-08T03:28:37;25.80;;;12.88;;
40871;SDS011;26591;43.264;26.940;2023-02-08T03:34:08;23.05;;;12.98;;
40871;SDS011;26591;43.264;26.940;2023-02-08T03:36:48;16.42;;;9.88;;
40871;SDS011;26591;43.264;26.940;2023-02-08T03:39:20;22.40;;;12.15;;
40871;SDS011;26591;43.264;26.940;2023-02-08T03:41:50;25.58;;;13.30;;
40871;SDS011;26591;43.264;26.940;2023-02-08T03:44:21;21.55;;;12.95;;
40871;SDS011;26591;43.264;26.940;2023-02-08T03:46:55;24.35;;;12.98;;
40871;SDS011;26591;43.264;26.940;2023-02-08T03:49:26;23.73;;;13.25;;
40871;SDS011;26591;43.264;26.940;2023-02-08T03:51:58;26.88;;;14.50;;
40871;SDS011;26591;43.264;26.940;2023-02-08T03:54:27;21.15;;;12.55;;
40871;SDS011;26591;43.264;26.940;2023-02-08T03:57:01;21.65;;;13.00;;
40871;SDS011;26591;43.264;26.940;2023-02-08T03:59:34;18.48;;;10.20;;
40871;SDS011;26591;43.264;26.940;2023-02-08T04:02:04;22.58;;;11.77;;
40871;SDS011;26591;43.264;26.940;2023-02-08T04:04:33;21.02;;;11.55;;
40871;SDS011;26591;43.264;26.940;2023-02-08T04:09:27;18.00;;;10.30;;
40871;SDS011;26591;43.264;26.940;2023-02-08T04:11:53;25.75;;;14.75;;
40871;SDS011;26591;43.264;26.940;2023-02-08T04:14:18;26.85;;;14.00;;
40871;SDS011;26591;43.264;26.940;2023-02-08T04:16:44;33.63;;;15.88;;
40871;SDS011;26591;43.264;26.940;2023-02-08T04:19:10;19.95;;;11.73;;
40871;SDS011;26591;43.264;26.940;2023-02-08T04:21:35;22.98;;;12.95;;
40871;SDS011;26591;43.264;26.940;2023-02-08T04:24:01;21.67;;;12.02;;
40871;SDS011;26591;43.264;26.940;2023-02-08T04:26:26;17.90;;;10.63;;
40871;SDS011;26591;43.264;26.940;2023-02-08T04:28:55;18.75;;;11.45;;
40871;SDS011;26591;43.264;26.940;2023-02-08T04:31:20;18.08;;;9.50;;
40871;SDS011;26591;43.264;26.940;2023-02-08T04:33:46;22.52;;;10.98;;
40871;SDS011;26591;43.264;26.940;2023-02-08T04:36:12;19.95;;;10.02;;
40871;SDS011;26591;43.264;26.940;2023-02-08T04:38:37;20.92;;;11.85;;
40871;SDS011;26591;43.264;26.940;2023-02-08T04:41:03;21.80;;;11.85;;
40871;SDS011;26591;43.264;26.940;2023-02-08T04:43:28;22.10;;;12.43;;
40871;SDS011;26591;43.264;26.940;2023-02-08T04:45:57;16.83;;;9.70;;
40871;SDS011;26591;43.264;26.940;2023-02-08T04:48:22;16.65;;;10.77;;
40871;SDS011;26591;43.264;26.940;2023-02-08T04:50:47;21.17;;;11.43;;
40871;SDS011;26591;43.264;26.940;2023-02-08T04:53:13;18.30;;;9.80;;
40871;SDS011;26591;43.264;26.940;2023-02-08T04:55:38;18.27;;;10.18;;
40871;SDS011;26591;43.264;26.940;2023-02-08T04:58:04;18.73;;;10.63;;
40871;SDS011;26591;43.264;26.940;2023-02-08T05:00:29;19.88;;;10.63;;
40871;SDS011;26591;43.264;26.940;2023-02-08T05:02:56;18.63;;;9.80;;
40871;SDS011;26591;43.264;26.940;2023-02-08T05:05:23;20.17;;;10.07;;
40871;SDS011;26591;43.264;26.940;2023-02-08T05:07:49;20.85;;;10.07;;
40871;SDS011;26591;43.264;26.940;2023-02-08T05:10:15;17.98;;;9.75;;
40871;SDS011;26591;43.264;26.940;2023-02-08T05:12:41;19.40;;;10.82;;
40871;SDS011;26591;43.264;26.940;2023-02-08T05:15:06;19.75;;;11.10;;
40871;SDS011;26591;43.264;26.940;2023-02-08T05:17:32;20.75;;;11.98;;
40871;SDS011;26591;43.264;26.940;2023-02-08T05:20:01;18.98;;;11.50;;
40871;SDS011;26591;43.264;26.940;2023-02-08T05:22:27;19.65;;;10.13;;
40871;SDS011;26591;43.264;26.940;2023-02-08T05:24:53;18.60;;;10.23;;
40871;SDS011;26591;43.264;26.940;2023-02-08T05:27:19;18.77;;;9.90;;
40871;SDS011;26591;43.264;26.940;2023-02-08T05:29:45;20.38;;;10.73;;
40871;SDS011;26591;43.264;26.940;2023-02-08T05:32:10;17.83;;;10.15;;
40871;SDS011;26591;43.264;26.940;2023-02-08T05:34:36;18.65;;;9.73;;
40871;SDS011;26591;43.264;26.940;2023-02-08T05:37:02;22.85;;;12.48;;
40871;SDS011;26591;43.264;26.940;2023-02-08T05:39:27;19.60;;;9.95;;
40871;SDS011;26591;43.264;26.940;2023-02-08T05:44:50;18.92;;;11.32;;
40871;SDS011;26591;43.264;26.940;2023-02-08T05:47:16;24.80;;;15.07;;
40871;SDS011;26591;43.264;26.940;2023-02-08T05:49:42;22.52;;;12.27;;
40871;SDS011;26591;43.264;26.940;2023-02-08T05:52:07;21.55;;;12.30;;
40871;SDS011;26591;43.264;26.940;2023-02-08T05:54:33;17.50;;;9.65;;
40871;SDS011;26591;43.264;26.940;2023-02-08T05:56:58;21.85;;;12.05;;
40871;SDS011;26591;43.264;26.940;2023-02-08T05:59:23;20.88;;;11.98;;
40871;SDS011;26591;43.264;26.940;2023-02-08T06:01:49;19.13;;;10.75;;
40871;SDS011;26591;43.264;26.940;2023-02-08T06:04:14;20.88;;;11.90;;
40871;SDS011;26591;43.264;26.940;2023-02-08T06:06:40;19.45;;;11.13;;
40871;SDS011;26591;43.264;26.940;2023-02-08T06:09:05;19.88;;;10.88;;
40871;SDS011;26591;43.264;26.940;2023-02-08T06:11:31;20.67;;;11.65;;
40871;SDS011;26591;43.264;26.940;2023-02-08T06:13:56;20.33;;;10.40;;
40871;SDS011;26591;43.264;26.940;2023-02-08T06:16:22;20.85;;;11.73;;
40871;SDS011;26591;43.264;26.940;2023-02-08T06:18:47;19.35;;;10.85;;
40871;SDS011;26591;43.264;26.940;2023-02-08T06:21:12;19.30;;;10.88;;
40871;SDS011;26591;43.264;26.940;2023-02-08T06:23:38;24.35;;;11.93;;
40871;SDS011;26591;43.264;26.940;2023-02-08T06:26:03;25.13;;;12.68;;
40871;SDS011;26591;43.264;26.940;2023-02-08T06:28:29;20.45;;;11.10;;
40871;SDS011;26591;43.264;26.940;2023-02-08T06:30:54;22.20;;;12.00;;
40871;SDS011;26591;43.264;26.940;2023-02-08T06:33:20;19.15;;;10.27;;
40871;SDS011;26591;43.264;26.940;2023-02-08T06:35:46;18.40;;;11.57;;
40871;SDS011;26591;43.264;26.940;2023-02-08T06:38:14;24.40;;;13.35;;
40871;SDS011;26591;43.264;26.940;2023-02-08T06:40:40;23.65;;;13.48;;
40871;SDS011;26591;43.264;26.940;2023-02-08T06:43:05;23.15;;;12.88;;
40871;SDS011;26591;43.264;26.940;2023-02-08T06:45:31;23.73;;;13.40;;
40871;SDS011;26591;43.264;26.940;2023-02-08T06:47:56;26.05;;;12.80;;
40871;SDS011;26591;43.264;26.940;2023-02-08T06:50:22;21.52;;;11.85;;
40871;SDS011;26591;43.264;26.940;2023-02-08T06:52:47;21.88;;;12.52;;
40871;SDS011;26591;43.264;26.940;2023-02-08T06:55:13;27.73;;;13.63;;
40871;SDS011;26591;43.264;26.940;2023-02-08T06:57:38;23.15;;;13.57;;
40871;SDS011;26591;43.264;26.940;2023-02-08T07:00:04;28.30;;;13.63;;
40871;SDS011;26591;43.264;26.940;2023-02-08T07:02:30;23.85;;;12.93;;
40871;SDS011;26591;43.264;26.940;2023-02-08T07:04:56;30.88;;;16.35;;
40871;SDS011;26591;43.264;26.940;2023-02-08T07:07:22;24.95;;;13.13;;
40871;SDS011;26591;43.264;26.940;2023-02-08T07:09:47;30.88;;;13.68;;
40871;SDS011;26591;43.264;26.940;2023-02-08T07:12:12;24.08;;;13.07;;
40871;SDS011;26591;43.264;26.940;2023-02-08T07:14:39;25.73;;;12.98;;
40871;SDS011;26591;43.264;26.940;2023-02-08T07:17:06;23.27;;;12.45;;
40871;SDS011;26591;43.264;26.940;2023-02-08T07:19:32;40.53;;;19.77;;
40871;SDS011;26591;43.264;26.940;2023-02-08T07:21:57;26.10;;;14.63;;
40871;SDS011;26591;43.264;26.940;2023-02-08T07:24:28;52.88;;;27.15;;
40871;SDS011;26591;43.264;26.940;2023-02-08T07:26:54;28.60;;;14.60;;
40871;SDS011;26591;43.264;26.940;2023-02-08T07:29:20;32.40;;;16.73;;
40871;SDS011;26591;43.264;26.940;2023-02-08T07:31:45;38.20;;;17.67;;
40871;SDS011;26591;43.264;26.940;2023-02-08T07:34:11;24.27;;;13.05;;
40871;SDS011;26591;43.264;26.940;2023-02-08T07:36:36;33.38;;;17.80;;
40871;SDS011;26591;43.264;26.940;2023-02-08T07:39:02;26.42;;;14.95;;
40871;SDS011;26591;43.264;26.940;2023-02-08T07:41:27;33.33;;;15.85;;
40871;SDS011;26591;43.264;26.940;2023-02-08T07:43:53;27.63;;;15.43;;
40871;SDS011;26591;43.264;26.940;2023-02-08T07:46:19;27.63;;;14.10;;
40871;SDS011;26591;43.264;26.940;2023-02-08T07:48:46;27.85;;;15.70;;
40871;SDS011;26591;43.264;26.940;2023-02-08T07:54:22;21.13;;;12.13;;
40871;SDS011;26591;43.264;26.940;2023-02-08T07:56:48;38.88;;;19.90;;
40871;SDS011;26591;43.264;26.940;2023-02-08T07:59:13;25.73;;;15.02;;
40871;SDS011;26591;43.264;26.940;2023-02-08T08:01:39;24.75;;;14.73;;
40871;SDS011;26591;43.264;26.940;2023-02-08T08:04:04;38.67;;;17.05;;
40871;SDS011;26591;43.264;26.940;2023-02-08T08:06:30;35.97;;;17.52;;
40871;SDS011;26591;43.264;26.940;2023-02-08T08:08:55;25.05;;;14.13;;
40871;SDS011;26591;43.264;26.940;2023-02-08T08:11:21;22.33;;;12.35;;
40871;SDS011;26591;43.264;26.940;2023-02-08T08:13:48;24.67;;;13.30;;
40871;SDS011;26591;43.264;26.940;2023-02-08T08:16:14;22.95;;;12.55;;
40871;SDS011;26591;43.264;26.940;2023-02-08T08:18:40;27.42;;;15.68;;
40871;SDS011;26591;43.264;26.940;2023-02-08T08:21:08;24.13;;;13.55;;
40871;SDS011;26591;43.264;26.940;2023-02-08T08:23:33;24.50;;;12.38;;
40871;SDS011;26591;43.264;26.940;2023-02-08T08:29:15;30.80;;;15.85;;
40871;SDS011;26591;43.264;26.940;2023-02-08T08:31:41;28.00;;;14.98;;
40871;SDS011;26591;43.264;26.940;2023-02-08T08:34:08;21.40;;;13.98;;
40871;SDS011;26591;43.264;26.940;2023-02-08T08:36:33;24.35;;;13.10;;
40871;SDS011;26591;43.264;26.940;2023-02-08T08:38:59;21.63;;;12.32;;
40871;SDS011;26591;43.264;26.940;2023-02-08T08:41:25;19.17;;;11.13;;
40871;SDS011;26591;43.264;26.940;2023-02-08T08:43:51;17.73;;;11.38;;
40871;SDS011;26591;43.264;26.940;2023-02-08T08:46:17;15.40;;;9.40;;
40871;SDS011;26591;43.264;26.940;2023-02-08T08:48:43;29.95;;;12.88;;
40871;SDS011;26591;43.264;26.940;2023-02-08T08:51:08;19.67;;;11.55;;
40871;SDS011;26591;43.264;26.940;2023-02-08T08:53:34;21.52;;;13.25;;
40871;SDS011;26591;43.264;26.940;2023-02-08T08:56:01;29.88;;;15.77;;
40871;SDS011;26591;43.264;26.940;2023-02-08T08:58:27;24.40;;;13.35;;
40871;SDS011;26591;43.264;26.940;2023-02-08T09:00:54;31.60;;;16.38;;
40871;SDS011;26591;43.264;26.940;2023-02-08T09:03:22;36.03;;;17.02;;
40871;SDS011;26591;43.264;26.940;2023-02-08T09:05:47;32.90;;;13.45;;
40871;SDS011;26591;43.264;26.940;2023-02-08T09:08:13;17.95;;;10.88;;
40871;SDS011;26591;43.264;26.940;2023-02-08T09:10:38;21.63;;;12.57;;
40871;SDS011;26591;43.264;26.940;2023-02-08T09:13:04;27.65;;;14.30;;
40871;SDS011;26591;43.264;26.940;2023-02-08T09:15:30;21.42;;;11.57;;
40871;SDS011;26591;43.264;26.940;2023-02-08T09:17:55;21.30;;;11.20;;
40871;SDS011;26591;43.264;26.940;2023-02-08T09:20:21;42.42;;;19.40;;
40871;SDS011;26591;43.264;26.940;2023-02-08T09:22:48;28.92;;;14.32;;
40871;SDS011;26591;43.264;26.940;2023-02-08T09:25:13;21.88;;;12.48;;
40871;SDS011;26591;43.264;26.940;2023-02-08T09:27:39;16.67;;;9.35;;
40871;SDS011;26591;43.264;26.940;2023-02-08T09:35:15;20.75;;;12.23;;
40871;SDS011;26591;43.264;26.940;2023-02-08T09:37:40;37.13;;;13.52;;
40871;SDS011;26591;43.264;26.940;2023-02-08T09:56:10;29.77;;;14.32;;
40871;SDS011;26591;43.264;26.940;2023-02-08T10:27:30;31.15;;;13.63;;
40871;SDS011;26591;43.264;26.940;2023-02-08T10:39:13;28.33;;;13.77;;
40871;SDS011;26591;43.264;26.940;2023-02-08T11:02:34;26.35;;;13.50;;
40871;SDS011;26591;43.264;26.940;2023-02-08T11:05:13;27.63;;;14.50;;
40871;SDS011;26591;43.264;26.940;2023-02-08T11:12:59;18.60;;;11.00;;
40871;SDS011;26591;43.264;26.940;2023-02-08T11:15:44;21.95;;;11.98;;
40871;SDS011;26591;43.264;26.940;2023-02-08T11:43:21;20.40;;;11.88;;
40871;SDS011;26591;43.264;26.940;2023-02-08T12:24:49;23.00;;;12.25;;
40871;SDS011;26591;43.264;26.940;2023-02-08T13:01:08;37.20;;;19.42;;
40871;SDS011;26591;43.264;26.940;2023-02-08T13:07:06;31.67;;;17.10;;
40871;SDS011;26591;43.264;26.940;2023-02-08T13:12:19;35.03;;;18.13;;
40871;SDS011;26591;43.264;26.940;2023-02-08T13:14:51;34.47;;;18.60;;
40871;SDS011;26591;43.264;26.940;2023-02-08T13:20:02;33.38;;;18.40;;
40871;SDS011;26591;43.264;26.940;2023-02-08T13:41:55;32.63;;;16.50;;
40871;SDS011;26591;43.264;26.940;2023-02-08T14:06:00;40.33;;;19.25;;
40871;SDS011;26591;43.264;26.940;2023-02-08T14:14:16;49.30;;;26.05;;
40871;SDS011;26591;43.264;26.940;2023-02-08T14:19:32;42.20;;;20.10;;
40871;SDS011;26591;43.264;26.940;2023-02-08T14:32:35;38.65;;;19.30;;
40871;SDS011;26591;43.264;26.940;2023-02-08T14:52:41;54.25;;;26.77;;
40871;SDS011;26591;43.264;26.940;2023-02-08T15:03:03;64.63;;;28.55;;
40871;SDS011;26591;43.264;26.940;2023-02-08T15:14:35;48.05;;;21.85;;
40871;SDS011;26591;43.264;26.940;2023-02-08T15:20:32;43.15;;;21.75;;
40871;SDS011;26591;43.264;26.940;2023-02-08T15:23:20;54.92;;;27.02;;
40871;SDS011;26591;43.264;26.940;2023-02-08T15:25:58;56.50;;;26.27;;
40871;SDS011;26591;43.264;26.940;2023-02-08T15:42:31;38.28;;;19.65;;
40871;SDS011;26591;43.264;26.940;2023-02-08T15:44:57;39.47;;;18.42;;
40871;SDS011;26591;43.264;26.940;2023-02-08T15:47:26;29.48;;;15.23;;
40871;SDS011;26591;43.264;26.940;2023-02-08T15:49:54;43.58;;;19.50;;
40871;SDS011;26591;43.264;26.940;2023-02-08T15:52:21;46.53;;;22.90;;
40871;SDS011;26591;43.264;26.940;2023-02-08T15:54:49;48.80;;;21.75;;
40871;SDS011;26591;43.264;26.940;2023-02-08T15:57:35;46.42;;;21.13;;
40871;SDS011;26591;43.264;26.940;2023-02-08T16:03:12;37.90;;;18.98;;
40871;SDS011;26591;43.264;26.940;2023-02-08T16:05:47;52.42;;;24.92;;
40871;SDS011;26591;43.264;26.940;2023-02-08T16:08:34;51.97;;;25.92;;
40871;SDS011;26591;43.264;26.940;2023-02-08T16:11:07;49.60;;;24.48;;
40871;SDS011;26591;43.264;26.940;2023-02-08T16:13:39;37.10;;;19.77;;
40871;SDS011;26591;43.264;26.940;2023-02-08T16:16:18;46.70;;;23.48;;
40871;SDS011;26591;43.264;26.940;2023-02-08T16:18:56;38.22;;;20.17;;
40871;SDS011;26591;43.264;26.940;2023-02-08T16:26:43;43.10;;;20.52;;
40871;SDS011;26591;43.264;26.940;2023-02-08T16:29:22;34.08;;;18.45;;
40871;SDS011;26591;43.264;26.940;2023-02-08T16:32:35;41.08;;;19.83;;
40871;SDS011;26591;43.264;26.940;2023-02-08T16:34:52;36.20;;;17.17;;
40871;SDS011;26591;43.264;26.940;2023-02-08T16:37:28;26.40;;;14.25;;
40871;SDS011;26591;43.264;26.940;2023-02-08T16:39:59;37.05;;;18.42;;
40871;SDS011;26591;43.264;26.940;2023-02-08T16:45:16;36.03;;;17.85;;
40871;SDS011;26591;43.264;26.940;2023-02-08T16:48:03;37.75;;;17.58;;
40871;SDS011;26591;43.264;26.940;2023-02-08T16:50:48;32.47;;;16.90;;
40871;SDS011;26591;43.264;26.940;2023-02-08T16:53:13;38.33;;;18.20;;
40871;SDS011;26591;43.264;26.940;2023-02-08T16:55:39;32.20;;;17.15;;
40871;SDS011;26591;43.264;26.940;2023-02-08T16:58:04;34.55;;;17.77;;
40871;SDS011;26591;43.264;26.940;2023-02-08T17:00:31;34.35;;;16.63;;
40871;SDS011;26591;43.264;26.940;2023-02-08T17:02:58;39.35;;;16.85;;
40871;SDS011;26591;43.264;26.940;2023-02-08T17:05:25;34.95;;;17.17;;
40871;SDS011;26591;43.264;26.940;2023-02-08T17:07:53;36.40;;;18.83;;
40871;SDS011;26591;43.264;26.940;2023-02-08T17:10:27;45.03;;;21.63;;
40871;SDS011;26591;43.264;26.940;2023-02-08T17:12:56;44.88;;;19.70;;
40871;SDS011;26591;43.264;26.940;2023-02-08T17:15:22;41.47;;;19.77;;
40871;SDS011;26591;43.264;26.940;2023-02-08T17:17:49;42.88;;;19.98;;
40871;SDS011;26591;43.264;26.940;2023-02-08T17:20:17;46.72;;;20.85;;
40871;SDS011;26591;43.264;26.940;2023-02-08T17:22:49;38.22;;;18.25;;
40871;SDS011;26591;43.264;26.940;2023-02-08T17:25:16;31.38;;;15.40;;
40871;SDS011;26591;43.264;26.940;2023-02-08T17:27:54;42.35;;;17.42;;
40871;SDS011;26591;43.264;26.940;2023-02-08T17:30:24;33.50;;;17.58;;
40871;SDS011;26591;43.264;26.940;2023-02-08T17:32:52;27.70;;;13.00;;
40871;SDS011;26591;43.264;26.940;2023-02-08T17:35:20;34.47;;;16.25;;
40871;SDS011;26591;43.264;26.940;2023-02-08T17:41:06;47.13;;;19.20;;
40871;SDS011;26591;43.264;26.940;2023-02-08T17:43:35;34.50;;;18.02;;
40871;SDS011;26591;43.264;26.940;2023-02-08T17:46:06;31.77;;;17.20;;
40871;SDS011;26591;43.264;26.940;2023-02-08T17:48:36;47.22;;;22.05;;
40871;SDS011;26591;43.264;26.940;2023-02-08T17:51:06;38.53;;;18.05;;
40871;SDS011;26591;43.264;26.940;2023-02-08T17:53:37;42.60;;;19.23;;
40871;SDS011;26591;43.264;26.940;2023-02-08T17:56:26;38.22;;;18.17;;
40871;SDS011;26591;43.264;26.940;2023-02-08T17:58:52;46.10;;;20.60;;
40871;SDS011;26591;43.264;26.940;2023-02-08T18:01:22;31.90;;;16.77;;
40871;SDS011;26591;43.264;26.940;2023-02-08T18:03:49;37.60;;;15.88;;
40871;SDS011;26591;43.264;26.940;2023-02-08T18:06:16;42.65;;;18.48;;
40871;SDS011;26591;43.264;26.940;2023-02-08T18:08:43;33.20;;;16.73;;
40871;SDS011;26591;43.264;26.940;2023-02-08T18:11:12;32.28;;;15.63;;
40871;SDS011;26591;43.264;26.940;2023-02-08T18:13:41;25.33;;;12.98;;
40871;SDS011;26591;43.264;26.940;2023-02-08T18:16:08;27.02;;;13.50;;
40871;SDS011;26591;43.264;26.940;2023-02-08T18:18:39;28.83;;;14.48;;
40871;SDS011;26591;43.264;26.940;2023-02-08T18:21:09;30.83;;;15.15;;
40871;SDS011;26591;43.264;26.940;2023-02-08T18:23:39;33.15;;;16.23;;
40871;SDS011;26591;43.264;26.940;2023-02-08T18:26:06;31.60;;;13.57;;
40871;SDS011;26591;43.264;26.940;2023-02-08T18:28:34;29.80;;;13.70;;
40871;SDS011;26591;43.264;26.940;2023-02-08T18:31:04;38.38;;;17.58;;
40871;SDS011;26591;43.264;26.940;2023-02-08T18:33:32;36.97;;;16.98;;
40871;SDS011;26591;43.264;26.940;2023-02-08T18:35:57;28.02;;;13.57;;
40871;SDS011;26591;43.264;26.940;2023-02-08T18:38:23;33.92;;;15.52;;
40871;SDS011;26591;43.264;26.940;2023-02-08T18:40:49;31.25;;;15.63;;
40871;SDS011;26591;43.264;26.940;2023-02-08T18:43:15;36.30;;;17.50;;
40871;SDS011;26591;43.264;26.940;2023-02-08T18:45:42;24.98;;;12.57;;
40871;SDS011;26591;43.264;26.940;2023-02-08T18:48:09;32.13;;;14.40;;
40871;SDS011;26591;43.264;26.940;2023-02-08T18:50:38;33.60;;;16.40;;
40871;SDS011;26591;43.264;26.940;2023-02-08T18:53:04;35.33;;;16.88;;
40871;SDS011;26591;43.264;26.940;2023-02-08T18:55:31;36.20;;;17.58;;
40871;SDS011;26591;43.264;26.940;2023-02-08T18:57:57;49.97;;;22.73;;
40871;SDS011;26591;43.264;26.940;2023-02-08T19:00:23;51.45;;;21.13;;
40871;SDS011;26591;43.264;26.940;2023-02-08T19:02:49;34.40;;;17.45;;
40871;SDS011;26591;43.264;26.940;2023-02-08T19:05:15;35.90;;;16.48;;
40871;SDS011;26591;43.264;26.940;2023-02-08T19:07:40;29.40;;;14.05;;
40871;SDS011;26591;43.264;26.940;2023-02-08T19:10:07;33.67;;;16.63;;
40871;SDS011;26591;43.264;26.940;2023-02-08T19:12:33;35.28;;;15.38;;
40871;SDS011;26591;43.264;26.940;2023-02-08T19:15:00;34.65;;;16.92;;
40871;SDS011;26591;43.264;26.940;2023-02-08T19:17:25;31.23;;;15.32;;
40871;SDS011;26591;43.264;26.940;2023-02-08T19:19:51;30.42;;;15.52;;
40871;SDS011;26591;43.264;26.940;2023-02-08T19:22:16;30.17;;;13.85;;
40871;SDS011;26591;43.264;26.940;2023-02-08T19:24:42;40.08;;;18.15;;
40871;SDS011;26591;43.264;26.940;2023-02-08T19:27:07;32.03;;;14.07;;
40871;SDS011;26591;43.264;26.940;2023-02-08T19:29:33;36.75;;;18.85;;
40871;SDS011;26591;43.264;26.940;2023-02-08T19:31:58;45.38;;;20.85;;
40871;SDS011;26591;43.264;26.940;2023-02-08T19:34:24;38.42;;;17.67;;
40871;SDS011;26591;43.264;26.940;2023-02-08T19:36:51;37.03;;;16.13;;
40871;SDS011;26591;43.264;26.940;2023-02-08T19:39:29;31.15;;;16.40;;
40871;SDS011;26591;43.264;26.940;2023-02-08T19:41:55;34.63;;;16.70;;
40871;SDS011;26591;43.264;26.940;2023-02-08T19:44:22;27.90;;;15.57;;
40871;SDS011;26591;43.264;26.940;2023-02-08T19:46:48;35.97;;;17.17;;
40871;SDS011;26591;43.264;26.940;2023-02-08T19:49:16;33.45;;;14.95;;
40871;SDS011;26591;43.264;26.940;2023-02-08T19:51:41;27.75;;;14.50;;
40871;SDS011;26591;43.264;26.940;2023-02-08T19:54:07;27.02;;;15.60;;
40871;SDS011;26591;43.264;26.940;2023-02-08T19:56:37;37.33;;;18.00;;
40871;SDS011;26591;43.264;26.940;2023-02-08T19:59:04;45.38;;;17.90;;
40871;SDS011;26591;43.264;26.940;2023-02-08T20:01:31;33.70;;;15.15;;
40871;SDS011;26591;43.264;26.940;2023-02-08T20:03:59;33.00;;;15.23;;
40871;SDS011;26591;43.264;26.940;2023-02-08T20:06:30;29.63;;;14.80;;
40871;SDS011;26591;43.264;26.940;2023-02-08T20:08:57;30.73;;;14.13;;
40871;SDS011;26591;43.264;26.940;2023-02-08T20:11:28;36.95;;;17.52;;
40871;SDS011;26591;43.264;26.940;2023-02-08T20:13:56;36.28;;;16.73;;
40871;SDS011;26591;43.264;26.940;2023-02-08T20:16:24;37.10;;;18.25;;
40871;SDS011;26591;43.264;26.940;2023-02-08T20:18:51;37.75;;;15.98;;
40871;SDS011;26591;43.264;26.940;2023-02-08T20:21:17;38.75;;;19.13;;
40871;SDS011;26591;43.264;26.940;2023-02-08T20:23:43;31.42;;;15.75;;
40871;SDS011;26591;43.264;26.940;2023-02-08T20:28:46;30.38;;;13.30;;
40871;SDS011;26591;43.264;26.940;2023-02-08T20:31:48;36.03;;;14.85;;
40871;SDS011;26591;43.264;26.940;2023-02-08T20:34:08;36.10;;;15.15;;
40871;SDS011;26591;43.264;26.940;2023-02-08T20:36:37;26.98;;;13.13;;